createdAt,value
2018-07-12T00:02:03.237Z,101383.37
2018-07-12T00:04:30.487Z,101380.47
2018-07-12T00:06:57.810Z,101379.87
2018-07-12T00:09:25.072Z,101382.97
2018-07-12T00:11:52.620Z,101383.53
2018-07-12T00:14:19.888Z,101382.64
2018-07-12T00:16:47.135Z,101378.20
2018-07-12T00:19:14.377Z,101379.50
2018-07-12T00:21:41.695Z,101376.05
2018-07-12T00:24:08.929Z,101373.61
2018-07-12T00:26:36.195Z,101366.32
2018-07-12T00:29:03.506Z,101379.20
2018-07-12T00:31:30.832Z,101375.11
2018-07-12T00:33:58.096Z,101376.86
2018-07-12T00:36:25.391Z,101376.77
2018-07-12T00:38:52.913Z,101381.65
2018-07-12T00:41:20.168Z,101379.91
2018-07-12T00:43:47.402Z,101386.46
2018-07-12T00:46:14.686Z,101382.19
2018-07-12T00:48:41.917Z,101378.81
2018-07-12T00:51:09.146Z,101375.81
2018-07-12T00:53:36.431Z,101379.00
2018-07-12T00:56:03.690Z,101376.45
2018-07-12T00:58:31.731Z,101382.48
2018-07-12T01:00:59.232Z,101373.50
2018-07-12T01:03:26.484Z,101384.68
2018-07-12T01:05:53.763Z,101386.00
2018-07-12T01:08:21.014Z,101386.30
2018-07-12T01:10:48.264Z,101383.43
2018-07-12T01:13:15.556Z,101382.78
2018-07-12T01:15:42.841Z,101384.91
2018-07-12T01:18:10.202Z,101384.38
2018-07-12T01:20:40.521Z,101385.43
2018-07-12T01:23:07.855Z,101388.84
2018-07-12T01:25:36.758Z,101386.52
2018-07-12T01:28:04.066Z,101385.45
2018-07-12T01:30:31.350Z,101387.13
2018-07-12T01:32:58.580Z,101381.61
2018-07-12T01:35:25.860Z,101380.70
2018-07-12T01:37:53.114Z,101375.86
2018-07-12T01:40:20.351Z,101373.55
2018-07-12T01:42:47.635Z,101372.22
2018-07-12T01:45:15.049Z,101374.41
2018-07-12T01:47:42.329Z,101383.01
2018-07-12T01:50:09.578Z,101377.55
2018-07-12T01:52:36.895Z,101380.59
2018-07-12T01:55:04.141Z,101374.48
2018-07-12T01:57:31.436Z,101375.09
2018-07-12T01:59:58.669Z,101370.44
2018-07-12T02:02:26.001Z,101369.41
2018-07-12T02:04:53.259Z,101365.66
2018-07-12T02:07:20.614Z,101367.41
2018-07-12T02:09:47.904Z,101367.89
2018-07-12T02:12:15.181Z,101372.66
2018-07-12T02:14:42.416Z,101370.05
2018-07-12T02:17:09.896Z,101368.56
2018-07-12T02:19:37.184Z,101368.45
2018-07-12T02:22:04.421Z,101369.37
2018-07-12T02:24:31.962Z,101370.35
2018-07-12T02:26:59.207Z,101378.29
2018-07-12T02:29:26.608Z,101368.75
2018-07-12T02:31:53.881Z,101363.83
2018-07-12T02:34:21.330Z,101367.00
2018-07-12T02:36:48.636Z,101367.08
2018-07-12T02:39:15.922Z,101369.69
2018-07-12T02:41:43.205Z,101365.59
2018-07-12T02:44:10.455Z,101368.75
2018-07-12T02:46:38.025Z,101368.32
2018-07-12T02:49:05.275Z,101364.41
2018-07-12T02:51:32.564Z,101362.56
2018-07-12T02:53:59.845Z,101374.26
2018-07-12T02:56:27.107Z,101371.80
2018-07-12T02:58:54.396Z,101373.72
2018-07-12T03:01:21.969Z,101369.81
2018-07-12T03:03:49.211Z,101366.20
2018-07-12T03:06:16.495Z,101369.55
2018-07-12T03:08:43.738Z,101368.50
2018-07-12T03:11:11.956Z,101360.81
2018-07-12T03:13:39.280Z,101366.56
2018-07-12T03:16:06.533Z,101364.63
2018-07-12T03:18:33.780Z,101368.32
2018-07-12T03:21:01.625Z,101365.39
2018-07-12T03:23:28.911Z,101370.84
2018-07-12T03:25:56.481Z,101374.88
2018-07-12T03:28:23.717Z,101373.69
2018-07-12T03:30:51.111Z,101377.87
2018-07-12T03:33:18.631Z,101375.14
2018-07-12T03:35:46.042Z,101377.96
2018-07-12T03:38:13.328Z,101380.91
2018-07-12T03:40:40.727Z,101379.89
2018-07-12T03:43:08.176Z,101371.72
2018-07-12T03:45:35.746Z,101374.17
2018-07-12T03:48:03.074Z,101378.75
2018-07-12T03:50:30.338Z,101373.83
2018-07-12T03:52:57.613Z,101378.92
2018-07-12T03:55:24.903Z,101382.64
2018-07-12T03:57:53.210Z,101377.56
2018-07-12T04:00:20.443Z,101383.36
2018-07-12T04:02:47.723Z,101389.55
2018-07-12T04:05:15.038Z,101392.11
2018-07-12T04:07:42.570Z,101387.36
2018-07-12T04:10:09.842Z,101388.72
2018-07-12T04:12:37.109Z,101391.05
2018-07-12T04:15:04.362Z,101393.86
2018-07-12T04:17:34.706Z,101390.98
2018-07-12T04:20:03.269Z,101399.00
2018-07-12T04:22:31.778Z,101390.82
2018-07-12T04:24:59.047Z,101393.06
2018-07-12T04:27:26.472Z,101399.47
2018-07-12T04:29:54.825Z,101399.09
2018-07-12T04:32:22.194Z,101395.08
2018-07-12T04:34:50.051Z,101396.94
2018-07-12T04:37:17.418Z,101395.57
2018-07-12T04:39:44.818Z,101391.15
2018-07-12T04:42:12.086Z,101391.95
2018-07-12T04:44:39.342Z,101397.48
2018-07-12T04:47:06.773Z,101400.73
2018-07-12T04:49:34.046Z,101400.44
2018-07-12T04:52:01.630Z,101398.88
2018-07-12T04:54:29.588Z,101394.61
2018-07-12T04:56:56.857Z,101392.86
2018-07-12T04:59:24.112Z,101393.36
2018-07-12T05:01:51.389Z,101398.14
2018-07-12T05:04:18.660Z,101394.88
2018-07-12T05:06:45.970Z,101393.78
2018-07-12T05:09:13.278Z,101390.17
2018-07-12T05:11:40.641Z,101395.70
2018-07-12T05:14:08.659Z,101385.92
2018-07-12T05:16:36.156Z,101401.05
2018-07-12T05:19:03.402Z,101398.91
2018-07-12T05:21:30.767Z,101405.58
2018-07-12T05:23:58.040Z,101414.06
2018-07-12T05:26:25.347Z,101407.88
2018-07-12T05:28:52.651Z,101408.70
2018-07-12T05:31:19.906Z,101409.64
2018-07-12T05:33:47.373Z,101408.64
2018-07-12T05:36:28.693Z,101411.14
2018-07-12T05:38:57.147Z,101419.10
2018-07-12T05:41:25.445Z,101422.06
2018-07-12T05:43:53.820Z,101424.76
2018-07-12T05:46:22.196Z,101431.22
2018-07-12T05:48:50.728Z,101433.80
2018-07-12T05:51:19.190Z,101431.45
2018-07-12T05:53:47.635Z,101429.97
2018-07-12T05:56:16.037Z,101435.26
2018-07-12T05:58:44.391Z,101437.63
2018-07-12T06:01:23.974Z,101438.09
2018-07-12T06:03:52.344Z,101439.75
2018-07-12T06:06:20.965Z,101439.62
2018-07-12T06:08:49.324Z,101438.00
2018-07-12T06:11:17.752Z,101445.77
2018-07-12T06:13:46.121Z,101438.84
2018-07-12T06:16:14.476Z,101443.63
2018-07-12T06:18:42.844Z,101445.55
2018-07-12T06:21:11.234Z,101438.72
2018-07-12T06:23:39.648Z,101445.42
2018-07-12T06:26:08.109Z,101440.75
2018-07-12T06:28:36.491Z,101432.09
2018-07-12T06:31:04.818Z,101437.70
2018-07-12T06:33:33.252Z,101440.90
2018-07-12T06:36:01.786Z,101446.22
2018-07-12T06:38:30.199Z,101444.36
2018-07-12T06:40:58.548Z,101451.27
2018-07-12T06:43:26.939Z,101451.46
2018-07-12T06:45:55.358Z,101451.27
2018-07-12T06:48:23.823Z,101450.73
2018-07-12T06:50:52.223Z,101444.70
2018-07-12T06:53:20.624Z,101448.98
2018-07-12T06:55:49.166Z,101455.77
2018-07-12T06:58:17.555Z,101457.32
2018-07-12T07:00:45.941Z,101454.13
2018-07-12T07:03:14.304Z,101457.19
2018-07-12T07:05:42.734Z,101459.63
2018-07-12T07:08:11.128Z,101465.45
2018-07-12T07:10:39.467Z,101468.56
2018-07-12T07:13:07.967Z,101459.21
2018-07-12T07:15:36.376Z,101464.88
2018-07-12T07:18:04.920Z,101466.30
2018-07-12T07:20:33.365Z,101468.63
2018-07-12T07:23:01.792Z,101470.34
2018-07-12T07:25:30.286Z,101471.45
2018-07-12T07:27:58.658Z,101467.09
2018-07-12T07:30:27.906Z,101469.89
2018-07-12T07:32:56.286Z,101467.39
2018-07-12T07:35:24.664Z,101473.95
2018-07-12T07:37:53.015Z,101468.81
2018-07-12T07:40:21.401Z,101473.72
2018-07-12T07:45:31.248Z,101471.56
2018-07-12T07:47:59.565Z,101464.77
2018-07-12T07:50:28.662Z,101473.30
2018-07-12T07:52:56.928Z,101472.76
2018-07-12T07:55:25.228Z,101479.62
2018-07-12T07:57:53.491Z,101484.86
2018-07-12T08:00:21.827Z,101487.33
2018-07-12T08:02:50.168Z,101477.16
2018-07-12T08:05:18.438Z,101479.64
2018-07-12T08:07:47.216Z,101481.27
2018-07-12T08:10:15.624Z,101487.84
2018-07-12T08:12:44.257Z,101491.98
2018-07-12T08:15:12.710Z,101485.38
2018-07-12T08:17:41.024Z,101491.92
2018-07-12T08:20:09.345Z,101492.25
2018-07-12T08:22:37.695Z,101490.63
2018-07-12T08:25:06.007Z,101491.98
2018-07-12T08:27:34.353Z,101492.50
2018-07-12T08:30:02.641Z,101497.73
2018-07-12T08:32:30.937Z,101498.24
2018-07-12T08:34:59.338Z,101493.88
2018-07-12T08:37:27.587Z,101494.98
2018-07-12T08:39:55.910Z,101502.45
2018-07-12T08:42:24.346Z,101494.72
2018-07-12T08:44:52.629Z,101496.67
2018-07-12T08:47:20.966Z,101494.98
2018-07-12T08:49:49.273Z,101497.48
2018-07-12T08:52:17.587Z,101503.17
2018-07-12T08:54:45.978Z,101501.30
2018-07-12T08:57:14.217Z,101512.02
2018-07-12T08:59:42.486Z,101510.63
2018-07-12T09:02:10.810Z,101516.67
2018-07-12T09:04:39.089Z,101521.02
2018-07-12T09:07:07.645Z,101517.60
2018-07-12T09:09:36.035Z,101518.94
2018-07-12T09:12:04.646Z,101506.98
2018-07-12T09:14:33.036Z,101506.87
2018-07-12T09:17:01.343Z,101505.72
2018-07-12T09:19:30.039Z,101510.16
2018-07-12T09:21:58.355Z,101505.11
2018-07-12T09:24:26.661Z,101498.42
2018-07-12T09:26:54.965Z,101501.61
2018-07-12T09:29:23.271Z,101509.32
2018-07-12T09:31:51.593Z,101505.04
2018-07-12T09:34:19.866Z,101507.60
2018-07-12T09:36:48.453Z,101509.91
2018-07-12T09:39:16.737Z,101517.16
2018-07-12T09:41:45.017Z,101513.78
2018-07-12T09:44:13.335Z,101512.91
2018-07-12T09:46:41.626Z,101513.03
2018-07-12T09:49:10.046Z,101514.31
2018-07-12T09:51:38.327Z,101515.27
2018-07-12T09:54:06.667Z,101520.19
2018-07-12T09:56:46.467Z,101519.34
2018-07-12T09:59:14.764Z,101503.20
2018-07-12T10:01:48.543Z,101516.86
2018-07-12T10:04:16.882Z,101509.11
2018-07-12T10:06:51.275Z,101512.42
2018-07-12T10:09:24.849Z,101509.08
2018-07-12T10:11:58.461Z,101506.19
2018-07-12T10:14:32.065Z,101504.69
2018-07-12T10:17:05.658Z,101501.36
2018-07-12T10:19:34.114Z,101501.98
2018-07-12T10:22:02.453Z,101496.27
2018-07-12T10:24:30.790Z,101506.27
2018-07-12T10:26:59.186Z,101494.74
2018-07-12T10:29:27.479Z,101507.48
2018-07-12T10:31:55.797Z,101505.39
2018-07-12T10:34:24.112Z,101501.16
2018-07-12T10:36:52.482Z,101499.59
2018-07-12T10:39:20.922Z,101502.03
2018-07-12T10:41:49.192Z,101503.13
2018-07-12T10:44:17.516Z,101495.80
2018-07-12T10:46:45.905Z,101495.50
2018-07-12T10:49:14.261Z,101497.44
2018-07-12T10:51:42.591Z,101493.47
2018-07-12T10:54:10.917Z,101499.89
2018-07-12T10:56:39.236Z,101499.83
2018-07-12T10:59:07.561Z,101492.18
2018-07-12T11:01:35.853Z,101493.56
2018-07-12T11:04:04.177Z,101491.48
2018-07-12T11:06:32.524Z,101492.19
2018-07-12T11:09:00.910Z,101491.90
2018-07-12T11:11:30.843Z,101493.23
2018-07-12T11:13:59.136Z,101492.51
2018-07-12T11:16:27.445Z,101492.15
2018-07-12T11:18:55.794Z,101485.94
2018-07-12T11:21:24.131Z,101485.80
2018-07-12T11:23:52.813Z,101481.40
2018-07-12T11:26:21.174Z,101483.55
2018-07-12T11:28:49.436Z,101475.81
2018-07-12T11:31:17.777Z,101482.84
2018-07-12T11:33:47.078Z,101478.03
2018-07-12T11:36:15.431Z,101474.21
2018-07-12T11:38:44.525Z,101476.28
2018-07-12T11:41:13.170Z,101475.06
2018-07-12T11:43:41.756Z,101467.75
2018-07-12T11:46:11.427Z,101464.70
2018-07-12T11:48:40.752Z,101463.97
2018-07-12T11:51:09.212Z,101466.88
2018-07-12T11:53:37.530Z,101461.78
2018-07-12T11:56:05.791Z,101462.58
2018-07-12T11:58:34.116Z,101458.68
2018-07-12T12:01:02.741Z,101448.46
2018-07-12T12:03:31.407Z,101457.44
2018-07-12T12:05:59.725Z,101453.59
2018-07-12T12:08:28.173Z,101455.73
2018-07-12T12:10:56.491Z,101452.03
2018-07-12T12:13:24.840Z,101458.15
2018-07-12T12:15:53.100Z,101458.27
2018-07-12T12:18:21.434Z,101452.24
2018-07-12T12:20:49.725Z,101443.97
2018-07-12T12:23:18.067Z,101441.60
2018-07-12T12:25:46.397Z,101442.36
2018-07-12T12:28:14.659Z,101442.77
2018-07-12T12:30:42.929Z,101440.47
2018-07-12T12:33:11.290Z,101434.47
2018-07-12T12:35:39.616Z,101431.03
2018-07-12T12:38:07.876Z,101431.81
2018-07-12T12:40:36.195Z,101433.19
2018-07-12T12:43:04.580Z,101424.00
2018-07-12T12:45:32.924Z,101427.09
2018-07-12T12:48:01.468Z,101426.00
2018-07-12T12:50:29.807Z,101426.50
2018-07-12T12:52:58.070Z,101423.28
2018-07-12T12:55:26.376Z,101422.63
2018-07-12T12:57:54.708Z,101426.23
2018-07-12T13:00:22.977Z,101414.61
2018-07-12T13:02:51.301Z,101419.77
2018-07-12T13:05:19.586Z,101421.80
2018-07-12T13:07:47.829Z,101421.00
2018-07-12T13:10:16.170Z,101423.49
2018-07-12T13:12:44.493Z,101430.05
2018-07-12T13:15:12.951Z,101428.72
2018-07-12T13:17:41.346Z,101432.91
2018-07-12T13:20:09.576Z,101433.50
2018-07-12T13:22:37.856Z,101428.25
2018-07-12T13:25:06.613Z,101432.88
2018-07-12T13:27:35.918Z,101431.23
2018-07-12T13:30:04.199Z,101430.34
2018-07-12T13:32:32.598Z,101433.53
2018-07-12T13:35:00.969Z,101438.22
2018-07-12T13:37:29.222Z,101438.45
2018-07-12T13:39:57.466Z,101439.91
2018-07-12T13:42:25.793Z,101439.81
2018-07-12T13:44:54.167Z,101438.08
2018-07-12T13:47:22.563Z,101443.08
2018-07-12T13:49:50.863Z,101443.84
2018-07-12T13:52:19.460Z,101439.28
2018-07-12T13:54:47.717Z,101444.86
2018-07-12T13:57:16.026Z,101444.06
2018-07-12T13:59:44.315Z,101442.24
2018-07-12T14:02:12.980Z,101439.81
2018-07-12T14:04:41.274Z,101444.27
2018-07-12T14:07:09.588Z,101433.23
2018-07-12T14:09:37.919Z,101431.62
2018-07-12T14:12:06.316Z,101431.34
2018-07-12T14:14:34.617Z,101432.88
2018-07-12T14:17:02.951Z,101430.42
2018-07-12T14:19:31.329Z,101427.22
2018-07-12T14:21:59.649Z,101425.33
2018-07-12T14:24:27.950Z,101415.59
2018-07-12T14:26:56.267Z,101425.00
2018-07-12T14:29:24.517Z,101425.38
2018-07-12T14:31:52.832Z,101412.51
2018-07-12T14:34:21.139Z,101409.77
2018-07-12T14:36:49.506Z,101415.08
2018-07-12T14:39:17.866Z,101405.80
2018-07-12T14:41:46.228Z,101412.55
2018-07-12T14:44:14.529Z,101415.91
2018-07-12T14:46:42.839Z,101402.11
2018-07-12T14:49:11.236Z,101407.11
2018-07-12T14:51:39.482Z,101403.97
2018-07-12T14:54:07.818Z,101397.18
2018-07-12T14:56:36.100Z,101408.34
2018-07-12T14:59:04.696Z,101410.70
2018-07-12T15:01:33.208Z,101409.18
2018-07-12T15:04:01.718Z,101406.55
2018-07-12T15:06:30.065Z,101401.84
2018-07-12T15:08:58.355Z,101404.37
2018-07-12T15:11:26.669Z,101401.12
2018-07-12T15:13:54.951Z,101406.70
2018-07-12T15:16:23.208Z,101407.04
2018-07-12T15:18:51.512Z,101406.19
2018-07-12T15:21:19.787Z,101395.20
2018-07-12T15:23:48.240Z,101396.70
2018-07-12T15:26:16.911Z,101400.16
2018-07-12T15:28:45.161Z,101403.42
2018-07-12T15:31:13.605Z,101406.57
2018-07-12T15:33:42.080Z,101402.23
2018-07-12T15:36:10.396Z,101411.73
2018-07-12T15:38:38.687Z,101401.95
2018-07-12T15:41:07.411Z,101408.41
2018-07-12T15:43:35.816Z,101407.08
2018-07-12T15:46:04.188Z,101400.79
2018-07-12T15:48:33.771Z,101411.16
2018-07-12T15:51:03.292Z,101400.50
2018-07-12T15:53:31.671Z,101405.58
2018-07-12T15:56:02.993Z,101402.91
2018-07-12T15:58:31.431Z,101407.47
2018-07-12T16:00:59.843Z,101415.02
2018-07-12T16:03:28.176Z,101404.98
2018-07-12T16:05:56.482Z,101410.69
2018-07-12T16:08:25.544Z,101417.48
2018-07-12T16:10:53.920Z,101412.54
2018-07-12T16:13:22.305Z,101410.88
2018-07-12T16:15:50.638Z,101399.97
2018-07-12T16:18:20.206Z,101397.34
2018-07-12T16:20:48.480Z,101396.52
2018-07-12T16:23:17.829Z,101409.61
2018-07-12T16:25:46.139Z,101404.28
2018-07-12T16:28:14.419Z,101409.15
2018-07-12T16:30:43.137Z,101397.60
2018-07-12T16:33:11.431Z,101409.29
2018-07-12T16:35:39.764Z,101413.69
2018-07-12T16:38:08.066Z,101414.38
2018-07-12T16:40:36.484Z,101400.83
2018-07-12T16:43:04.799Z,101404.05
2018-07-12T16:45:33.130Z,101408.42
2018-07-12T16:48:01.467Z,101401.34
2018-07-12T16:50:29.834Z,101401.04
2018-07-12T16:52:58.236Z,101406.58
2018-07-12T16:55:26.639Z,101403.41
2018-07-12T16:57:54.895Z,101406.99
2018-07-12T17:00:23.221Z,101400.66
2018-07-12T17:02:51.550Z,101407.50
2018-07-12T17:05:20.054Z,101406.99
2018-07-12T17:07:48.342Z,101410.80
2018-07-12T17:10:16.596Z,101395.02
2018-07-12T17:12:44.939Z,101411.47
2018-07-12T17:15:13.191Z,101404.97
2018-07-12T17:17:41.680Z,101411.70
2018-07-12T17:20:10.005Z,101409.31
2018-07-12T17:22:38.284Z,101416.48
2018-07-12T17:25:06.858Z,101413.24
2018-07-12T17:27:35.125Z,101410.46
2018-07-12T17:30:03.428Z,101412.53
2018-07-12T17:32:31.689Z,101420.20
2018-07-12T17:35:00.047Z,101427.29
2018-07-12T17:37:28.330Z,101424.41
2018-07-12T17:39:56.629Z,101424.98
2018-07-12T17:42:24.871Z,101425.84
2018-07-12T17:44:53.143Z,101424.77
2018-07-12T17:47:21.457Z,101436.13
2018-07-12T17:49:49.708Z,101436.73
2018-07-12T17:52:18.051Z,101434.32
2018-07-12T17:54:46.499Z,101441.98
2018-07-12T17:57:14.865Z,101443.26
2018-07-12T17:59:43.144Z,101443.35
2018-07-12T18:02:11.521Z,101446.36
2018-07-12T18:04:40.032Z,101446.16
2018-07-12T18:07:08.300Z,101449.84
2018-07-12T18:09:36.755Z,101457.09
2018-07-12T18:12:05.042Z,101451.17
2018-07-12T18:14:33.371Z,101457.64
2018-07-12T18:17:01.949Z,101458.29
2018-07-12T18:19:30.319Z,101461.05
2018-07-12T18:21:58.675Z,101454.72
2018-07-12T18:24:26.914Z,101459.16
2018-07-12T18:26:55.441Z,101455.72
2018-07-12T18:29:23.796Z,101461.46
2018-07-12T18:31:52.097Z,101461.45
2018-07-12T18:34:20.367Z,101467.00
2018-07-12T18:36:48.674Z,101455.91
2018-07-12T18:39:16.960Z,101471.39
2018-07-12T18:41:45.360Z,101470.69
2018-07-12T18:44:13.641Z,101476.42
2018-07-12T18:46:41.909Z,101479.67
2018-07-12T18:49:10.279Z,101481.45
2018-07-12T18:51:38.702Z,101485.72
2018-07-12T18:54:07.044Z,101479.66
2018-07-12T18:56:36.749Z,101486.30
2018-07-12T18:59:05.673Z,101491.98
2018-07-12T19:01:40.135Z,101491.47
2018-07-12T19:04:08.525Z,101487.92
2018-07-12T19:06:36.882Z,101486.93
2018-07-12T19:09:07.329Z,101490.56
2018-07-12T19:11:36.035Z,101500.80
2018-07-12T19:14:04.426Z,101501.80
2018-07-12T19:16:32.809Z,101505.20
2018-07-12T19:19:01.119Z,101506.89
2018-07-12T19:21:29.398Z,101513.56
2018-07-12T19:23:57.788Z,101512.58
2018-07-12T19:26:26.584Z,101521.77
2018-07-12T19:28:55.150Z,101522.61
2018-07-12T19:31:23.428Z,101523.41
2018-07-12T19:33:51.843Z,101535.52
2018-07-12T19:36:20.189Z,101526.46
2018-07-12T19:38:48.592Z,101540.56
2018-07-12T19:41:17.182Z,101545.47
2018-07-12T19:43:45.507Z,101545.52
2018-07-12T19:46:13.869Z,101550.89
2018-07-12T19:48:42.153Z,101550.92
2018-07-12T19:51:10.436Z,101552.04
2018-07-12T19:53:38.733Z,101562.09
2018-07-12T19:56:07.204Z,101561.03
2018-07-12T19:58:35.508Z,101570.43
2018-07-12T20:01:04.101Z,101562.20
2018-07-12T20:03:32.414Z,101569.13
2018-07-12T20:06:00.711Z,101566.38
2018-07-12T20:08:29.003Z,101576.88
2018-07-12T20:10:58.406Z,101577.69
2018-07-12T20:13:27.986Z,101582.69
2018-07-12T20:15:56.586Z,101576.36
2018-07-12T20:18:25.999Z,101581.61
2018-07-12T20:20:54.292Z,101587.95
2018-07-12T20:23:24.915Z,101589.36
2018-07-12T20:25:53.268Z,101594.02
2018-07-12T20:28:21.728Z,101591.52
2018-07-12T20:30:50.252Z,101593.17
2018-07-12T20:33:18.870Z,101591.81
2018-07-12T20:35:47.113Z,101593.69
2018-07-12T20:38:15.372Z,101600.02
2018-07-12T20:40:43.863Z,101601.34
2018-07-12T20:43:16.666Z,101599.13
2018-07-12T20:45:45.288Z,101608.12
2018-07-12T20:48:13.758Z,101604.00
2018-07-12T20:50:44.954Z,101605.59
2018-07-12T20:53:13.425Z,101614.06
2018-07-12T20:55:41.813Z,101616.45
2018-07-12T20:58:10.306Z,101609.32
2018-07-12T21:00:38.580Z,101610.38
2018-07-12T21:03:07.003Z,101618.02
2018-07-12T21:05:35.344Z,101617.16
2018-07-12T21:08:03.650Z,101622.56
2018-07-12T21:10:31.981Z,101622.02
2018-07-12T21:13:00.240Z,101629.69
2018-07-12T21:15:31.311Z,101637.77
2018-07-12T21:18:01.625Z,101635.45
2018-07-12T21:20:29.867Z,101641.17
2018-07-12T21:22:58.157Z,101634.00
2018-07-12T21:25:26.520Z,101635.38
2018-07-12T21:27:54.783Z,101639.63
2018-07-12T21:30:23.095Z,101642.88
2018-07-12T21:32:51.382Z,101644.77
2018-07-12T21:35:19.671Z,101641.30
2018-07-12T21:37:47.929Z,101646.81
2018-07-12T21:40:18.557Z,101643.95
2018-07-12T21:42:46.854Z,101652.27
2018-07-12T21:45:15.108Z,101648.88
2018-07-12T21:47:43.494Z,101653.44
2018-07-12T21:50:11.734Z,101653.33
2018-07-12T21:52:40.043Z,101654.29
2018-07-12T21:55:08.395Z,101658.07
2018-07-12T21:57:36.691Z,101657.83
2018-07-12T22:00:07.646Z,101656.76
2018-07-12T22:02:35.936Z,101657.69
2018-07-12T22:05:04.253Z,101656.76
2018-07-12T22:08:10.161Z,101654.23
2018-07-12T22:10:38.440Z,101660.14
2018-07-12T22:13:06.856Z,101661.41
2018-07-12T22:15:35.329Z,101662.05
2018-07-12T22:18:03.619Z,101664.61
2018-07-12T22:20:32.084Z,101660.31
2018-07-12T22:23:04.220Z,101662.81
2018-07-12T22:25:33.042Z,101660.48
2018-07-12T22:28:01.301Z,101661.17
2018-07-12T22:30:30.082Z,101659.74
2018-07-12T22:32:59.259Z,101658.77
2018-07-12T22:35:27.681Z,101660.45
2018-07-12T22:37:56.428Z,101659.12
2018-07-12T22:40:24.687Z,101659.92
2018-07-12T22:42:53.020Z,101665.05
2018-07-12T22:45:21.444Z,101657.84
2018-07-12T22:47:49.820Z,101649.22
2018-07-12T22:50:18.241Z,101659.40
2018-07-12T22:52:46.539Z,101654.35
2018-07-12T22:55:14.775Z,101657.23
2018-07-12T22:57:43.059Z,101662.89
2018-07-12T23:00:11.370Z,101658.91
2018-07-12T23:02:40.197Z,101653.17
2018-07-12T23:05:08.731Z,101654.05
2018-07-12T23:07:36.985Z,101658.33
2018-07-12T23:10:05.436Z,101657.80
2018-07-12T23:12:33.689Z,101662.28
2018-07-12T23:15:02.049Z,101655.95
2018-07-12T23:17:30.478Z,101660.31
2018-07-12T23:19:58.719Z,101656.00
2018-07-12T23:22:26.997Z,101661.52
2018-07-12T23:24:55.279Z,101662.75
2018-07-12T23:27:23.684Z,101661.12
2018-07-12T23:29:51.946Z,101660.36
2018-07-12T23:32:20.269Z,101660.89
2018-07-12T23:34:48.640Z,101664.95
2018-07-12T23:37:16.925Z,101661.43
2018-07-12T23:39:45.336Z,101665.62
2018-07-12T23:42:13.589Z,101659.38
2018-07-12T23:44:41.940Z,101657.30
2018-07-12T23:47:10.232Z,101660.95
2018-07-12T23:49:38.517Z,101653.91
2018-07-12T23:52:07.044Z,101654.74
2018-07-12T23:54:35.301Z,101650.12
2018-07-12T23:57:03.578Z,101653.81
2018-07-12T23:59:31.879Z,101649.15
